• Join FlightAware (Why Join?)
  • Login
  • US Flag 
03:38PM EDT


 

Airport Tracker/Info


-or-


 

Live Flight TrackerFlight Track Log ✈ AWE1092 ✈ 26-Apr-2013 ✈ KPHL - KRDU

Flight Track Log - Related Links

Times and Time Zones

All times are in EDT time to prevent confusion due to time zone crossing. See the AWE1092 flight status page for this flight to view local times or setup timezone preferences in your user account.

Time Position Orientation Groundspeed Altitude Reporting Facility
EDT Latitude Longitude Course Direction KTS MPH feet Rate Location/Type
09:44AM 39.8667 -75.2833 185° South 152 175 1,000  Level Philadelphia TRACON
09:45AM 39.8167 -75.3167 207° Southwest 218 251 2,700 2,760 Climbing Philadelphia TRACON
09:47AM 39.5364 -75.3094 189° South  Level FlightAware Approximate
09:47AM 39.7072 -75.3703 201° Southwest 255 293 8,900  Level Washington Center
09:48AM 39.4521 -75.3326 194° South  Level FlightAware Approximate
09:48AM 39.6258 -75.3706 180° South 271 312 10,900  Level Washington Center
09:49AM 39.3661 -75.3408 185° South  Level FlightAware Approximate
09:49AM 39.5319 -75.3736 181° South 308 354 13,300  Level Washington Center
09:50AM 39.4278 -75.3767 181° South 339 390 15,900 1,800 Climbing Washington Center
09:51AM 39.3217 -75.3797 181° South 373 429 16,900 480 Climbing Washington Center
09:52AM 39.2175 -75.3825 181° South 385 443 16,900 240 Level Washington Center
09:53AM 39.1092 -75.3964 186° South 385 443 17,400 1,260 Climbing Washington Center
09:54AM 39.0028 -75.4128 187° South 385 443 19,500 2,160 Climbing Washington Center
09:55AM 38.8922 -75.4289 186° South 390 449 21,700 2,040 Climbing Washington Center
09:56AM 38.7778 -75.4478 187° South 397 457 23,600 1,740 Climbing Washington Center
09:57AM 38.6608 -75.4667 187° South 418 481 25,300 1,140 Climbing Washington Center
09:58AM 38.5400 -75.4828 186° South 431 496 26,000 300 Climbing Washington Center
09:59AM 38.4211 -75.5017 187° South 436 502 26,000  Level Washington Center
10:00AM 38.3067 -75.5442 196° South 436 502 26,000  Level Washington Center
10:01AM 38.2147 -75.6286 216° Southwest 421 484 26,000  Level Washington Center
10:02AM 38.1231 -75.7158 217° Southwest 415 478 26,000  Level Washington Center
10:03AM 38.0333 -75.8053 218° Southwest 415 478 26,000  Level Washington Center
10:04AM 37.9372 -75.8867 214° Southwest 415 478 26,000  Level Washington Center
10:05AM 37.8453 -75.9706 216° Southwest 415 478 26,000  Level Washington Center
10:06AM 37.7531 -76.0592 217° Southwest 415 478 26,000 -300 Level Washington Center
10:07AM 37.6631 -76.1400 215° Southwest 415 478 25,500 -720 Descending Washington Center
10:08AM 37.5667 -76.2233 214° Southwest 415 478 24,600 -780 Descending Washington Center
10:09AM 37.4767 -76.3036 215° Southwest 415 478 24,000 -360 Descending Washington Center
10:10AM 37.3842 -76.3839 215° Southwest 410 472 24,000  Level Washington Center
10:11AM 37.2939 -76.4664 216° Southwest 404 465 24,000 -60 Level Washington Center
10:12AM 37.2183 -76.5569 224° Southwest 399 459 23,900 -600 Descending Washington Center
10:13AM 37.1528 -76.6628 232° Southwest 389 448 22,800 -960 Descending Washington Center
10:14AM 37.0850 -76.7661 231° Southwest 389 448 22,000 -420 Descending Washington Center
10:15AM 37.0214 -76.8692 232° Southwest 389 448 22,000  Level Washington Center
10:16AM 36.9556 -76.9694 231° Southwest 389 448 22,000  Level Washington Center
10:17AM 36.8897 -77.0722 231° Southwest 389 448 22,000  Level Washington Center
10:18AM 36.8217 -77.1719 230° Southwest 389 448 22,000  Level Washington Center
10:19AM 36.7597 -77.2719 232° Southwest 383 441 22,000  Level Washington Center
10:20AM 36.6936 -77.3767 232° Southwest 383 441 22,000  Level Washington Center
10:21AM 36.6275 -77.4761 230° Southwest 383 441 22,000  Level Washington Center
10:22AM 36.5611 -77.5753 230° Southwest 383 441 22,000 -660 Level Washington Center
10:23AM 36.4969 -77.6744 231° Southwest 383 441 20,700 -1,380 Descending Washington Center
10:24AM 36.4325 -77.7733 231° Southwest 383 441 19,300 -1,320 Descending Washington Center
10:25AM 36.3703 -77.8722 232° Southwest 378 435 18,200 -1,680 Descending Washington Center
10:26AM 36.3078 -77.9658 230° Southwest 370 426 16,000 -1,920 Descending Washington Center
10:27AM 36.2456 -78.0542 229° Southwest 343 395 14,500 -1,020 Descending Washington Center
10:28AM 36.1853 -78.1450 231° Southwest 355 409 14,000 -600 Descending Washington Center
10:28AM 36.1569 -78.1928 234° Southwest 342 394 13,600 -1,620 Descending Washington Center
10:29AM 36.1350 -78.2436 242° Southwest 338 389 12,500 -1,800 Descending Washington Center
10:29AM 36.1178 -78.2764 237° Southwest 323 372 12,000 -1,080 Descending Washington Center
10:31AM 36.0519 -78.4156 240° Southwest 295 339 10,400 -960 Descending Washington Center
10:31AM 36.0322 -78.4508 235° Southwest 275 316 10,100 -840 Descending Washington Center
10:32AM 36.0122 -78.4989 243° Southwest 285 328 9,600 -780 Descending Washington Center
10:32AM 35.9950 -78.5264 232° Southwest 278 320 9,400 -840 Descending Washington Center
10:33AM 35.9583 -78.5686 223° Southwest 285 328 8,800 -840 Descending Washington Center
10:33AM 35.9283 -78.5983 219° Southwest 270 311 8,400 -780 Descending Washington Center
10:34AM 35.9069 -78.6258 226° Southwest 273 314 8,100 -420 Descending Washington Center
10:34AM 35.8772 -78.6478 211° Southwest 241 277 8,000 -120 Descending Washington Center
10:35AM 35.8536 -78.6725 220° Southwest 251 289 8,000 -660 Level Washington Center
10:35AM 35.8192 -78.7069 219° Southwest 225 259 7,300 -1,320 Descending Washington Center
10:36AM 35.8064 -78.7244 228° Southwest 237 273 6,700 -1,860 Descending Washington Center
10:36AM 35.7892 -78.7442 223° Southwest 222 255 6,000 -1,920 Descending Washington Center
10:37AM 35.7350 -78.8161 227° Southwest 231 266 3,700 -1,380 Descending Washington Center
10:39AM 35.7625 -78.8814 297° West 189 217 2,700 -840 Descending Washington Center
10:39AM 35.8017 -78.8931 346° North 166 191 2,100 -780 Descending Washington Center